Data for 09/26/2007

Time Sea-Level Adjusted Pressure Absolute Pressure Temperature Relative Humidity Dew Point   
(mb) (inHg) (mb) (inHg) (C) (F) (%) (C) (F)
00:05 1021 30.15 850 25.1 11.1 51.9 42 -1.2 29.8
00:10 1021 30.15 850 25.1 11.1 52 41 -1.6 29.2
00:15 1021 30.15 850 25.1 11.2 52.2 40 -1.7 28.9
00:20 1021 30.15 850 25.1 11.2 52.2 42 -1.3 29.7
00:25 1021 30.15 850 25.1 11.1 51.9 43 -1 30.2
00:30 1021 30.15 850 25.1 10.9 51.5 44 -0.8 30.5
00:35 1021 30.15 850 25.1 10.7 51.2 45 -0.8 30.5
00:40 1021 30.15 850 25.1 10.5 50.9 45 -0.8 30.6
00:45 1021 30.15 850 25.1 10.4 50.6 46 -0.8 30.6
00:50 1021 30.15 850 25.1 10.2 50.4 46 -0.7 30.8
00:55 1021 30.15 850 25.1 10.2 50.3 47 -0.6 30.9
01:00 1021 30.15 850 25.1 10.1 50.1 47 -0.7 30.7
01:05 1021 30.15 850 25.1 10 50 47 -0.7 30.8
01:10 1021 30.15 850 25.1 10 49.9 48 -0.6 30.9
01:15 1021 30.15 850 25.1 9.9 49.9 48 -0.5 31.1
01:20 1021 30.15 850 25.1 9.9 49.8 48 -0.6 30.8
01:25 1021 30.15 850 25.1 9.9 49.7 47 -0.7 30.7
01:30 1021 30.15 850 25.1 9.8 49.7 48 -0.6 30.9
01:35 1021 30.15 850 25.1 9.8 49.7 47 -0.8 30.6
01:40 1021 30.15 850 25.1 9.8 49.7 47 -0.9 30.4
01:45 1021 30.15 850 25.1 9.8 49.6 49 -0.5 31.1
01:50 1021 30.15 850 25.1 9.6 49.2 52 0.3 32.5
01:55 1021 30.15 850 25.1 9 48.2 52 -0.3 31.5
02:00 1021 30.15 850 25.1 9.1 48.4 51 -0.5 31
02:05 1021 30.15 850 25.1 9.3 48.8 49 -0.7 30.7
02:10 1021 30.15 850 25.1 9.3 48.8 51 -0.4 31.3
02:15 1021 30.15 850 25.1 9.1 48.4 52 -0.2 31.6
02:20 1021 30.15 850 25.1 9 48.2 52 -0.3 31.4
02:25 1021 30.15 850 25.1 9 48.2 51 -0.6 30.9
02:30 1021 30.15 850 25.1 9 48.2 51 -0.6 31
02:35 1021 30.15 850 25.1 8.8 47.9 54 0 32
02:40 1021 30.15 850 25.1 8.5 47.3 55 0.1 32.1
02:45 1021 30.15 850 25.1 8.3 47 56 0.1 32.2
02:50 1021 30.15 850 25.1 8.3 46.9 57 0.3 32.5
02:55 1021 30.15 850 25.1 8.1 46.5 58 0.4 32.7
03:00 1021 30.15 850 25.1 7.8 46.1 58 0.1 32.2
03:05 1021 30.15 850 25.1 7.6 45.7 57 -0.3 31.5
03:10 1021 30.15 850 25.1 7.8 46 56 -0.3 31.5
03:15 1021 30.15 850 25.1 8 46.3 56 -0.3 31.4
03:20 1021 30.15 850 25.1 7.7 45.8 58 -0.1 31.8
03:25 1021 30.15 850 25.1 7.4 45.4 57 -0.5 31.2
03:30 1021 30.15 850 25.1 7.4 45.4 57 -0.4 31.3
03:35 1021 30.15 850 25.1 7.5 45.5 57 -0.5 31.1
03:40 1021 30.15 850 25.1 7.4 45.4 59 0 32
03:45 1021 30.15 850 25.1 7 44.5 61 0.1 32.1
03:50 1021 30.15 850 25.1 6.7 44 64 0.3 32.6
03:55 1021 30.15 850 25.1 6.8 44.3 61 -0.2 31.6
04:00 1021 30.15 850 25.1 6.9 44.5 60 -0.4 31.3
04:05 1021 30.15 850 25.1 7.2 45 60 0.1 32.1
04:10 1021 30.15 850 25.1 6.9 44.5 61 -0 31.9
04:15 1021 30.15 850 25.1 6.8 44.2 61 -0.2 31.7
04:20 1021 30.15 850 25.1 6.7 44.1 61 -0.3 31.5
04:25 1021 30.15 850 25.1 6.4 43.5 62 -0.3 31.5
04:30 1021 30.15 850 25.1 6.2 43.1 62 -0.5 31.1
04:35 1021 30.15 850 25.1 6.1 43 63 -0.4 31.3
04:40 1021 30.15 850 25.1 5.9 42.7 65 -0.1 31.9
04:45 1021 30.15 850 25.1 5.7 42.3 65 -0.3 31.4
04:50 1021 30.15 850 25.1 5.9 42.6 63 -0.6 30.9
04:55 1021 30.15 850 25.1 6.1 42.9 61 -0.9 30.4
05:00 1021 30.15 850 25.1 6.1 42.9 63 -0.5 31.1
05:05 1021 30.15 850 25.1 5.8 42.4 65 -0.3 31.4
05:10 1021 30.15 850 25.1 5.7 42.2 63 -0.8 30.5
05:15 1021 30.15 850 25.1 5.7 42.2 65 -0.5 31.1
05:20 1021 30.15 850 25.1 5.5 41.9 63 -0.9 30.4
05:25 1021 30.15 850 25.1 5.5 41.8 63 -1 30.2
05:30 1021 30.15 850 25.1 5.8 42.4 61 -1.2 29.9
05:35 1021 30.15 850 25.1 5.9 42.5 62 -0.9 30.4
05:40 1021 30.15 850 25.1 5.9 42.6 62 -0.7 30.7
05:45 1021 30.15 850 25.1 5.8 42.4 60 -1.3 29.6
05:50 1021 30.15 850 25.1 6.2 43.2 58 -1.5 29.3
05:55 1021 30.15 850 25.1 6.5 43.7 57 -1.3 29.6
06:00 1021 30.15 850 25.1 6.4 43.5 58 -1.2 29.9
06:05 1021 30.15 850 25.1 6.3 43.3 58 -1.3 29.7
06:10 1021 30.15 850 25.1 6.2 43.2 58 -1.4 29.4
06:15 1021 30.15 850 25.1 6.5 43.7 57 -1.4 29.5
06:20 1021 30.15 850 25.1 6.5 43.7 57 -1.5 29.4
06:25 1021 30.15 850 25.1 6.7 44 57 -1.3 29.7
06:30 1021 30.15 850 25.1 6.6 43.9 58 -1.1 30.1
06:35 1021 30.15 850 25.1 6.5 43.6 58 -1.2 29.9
06:40 1021 30.15 850 25.1 6.4 43.6 58 -1.2 29.8
06:45 1021 30.15 850 25.1 6.4 43.5 57 -1.4 29.5
06:50 1021 30.15 850 25.1 6.2 43.2 63 -0.3 31.5
06:55 1021 30.15 850 25.1 5.4 41.6 66 -0.5 31.1
07:00 1021 30.15 850 25.1 4.7 40.5 67 -0.8 30.6
07:05 1021 30.15 850 25.1 4.4 39.9 67 -1.1 30
07:10 1021 30.15 850 25.1 4.4 39.8 67 -1.2 29.9
07:15 1021 30.15 850 25.1 4.5 40.1 65 -1.5 29.3
07:20 1021 30.15 850 25.1 4.8 40.7 64 -1.5 29.3
07:25 1021 30.15 850 25.1 5 41 64 -1.2 29.9
07:30 1021 30.15 850 25.1 4.7 40.4 66 -1.1 30.1
07:35 1021 30.15 850 25.1 4.5 40.2 64 -1.6 29
07:40 1021 30.15 850 25.1 5.1 41.1 63 -1.3 29.6
07:45 1021 30.15 850 25.1 5.1 41.2 64 -1.2 29.9
07:50 1021 30.15 850 25.1 5.1 41.1 65 -1 30.2
07:55 1021 30.15 850 25.1 4.6 40.3 68 -0.9 30.5
08:00 1021 30.15 850 25.1 4.3 39.8 69 -0.9 30.4
08:05 1021 30.15 850 25.1 4.4 40 69 -0.8 30.5
08:10 1021 30.15 850 25.1 4.8 40.6 65 -1.2 29.8
08:15 1021 30.15 850 25.1 5 41.1 66 -0.7 30.7
08:20 1021 30.15 850 25.1 4.9 40.9 66 -0.9 30.4
08:25 1021 30.15 851 25.13 5.4 41.8 62 -1.2 29.8
08:30 1021 30.15 851 25.13 5.8 42.4 63 -0.6 30.9
08:35 1021 30.15 851 25.13 6.1 43 62 -0.6 30.8
08:40 1022 30.18 851 25.13 6.6 43.8 60 -0.6 31
08:45 1022 30.18 851 25.13 7.3 45.2 58 -0.4 31.2
08:50 1022 30.18 851 25.13 7.9 46.3 56 -0.4 31.4
08:55 1022 30.18 851 25.13 8.6 47.4 55 0.2 32.4
09:00 1022 30.18 851 25.13 8.3 47 58 0.7 33.2
09:05 1022 30.18 851 25.13 8.2 46.8 57 0.3 32.6
09:10 1021 30.15 851 25.13 8.4 47 58 0.6 33.1
09:15 1022 30.18 851 25.13 8.7 47.7 52 -0.6 31
09:20 1021 30.15 851 25.13 9.1 48.3 50 -0.8 30.5
09:25 1021 30.15 851 25.13 9.6 49.3 48 -0.8 30.6
09:30 1021 30.15 851 25.13 9.5 49 47 -1.3 29.7
09:35 1021 30.15 851 25.13 10.3 50.6 44 -1.5 29.4
09:40 1021 30.15 851 25.13 10.7 51.3 46 -0.5 31.2
09:45 1021 30.15 851 25.13 9.8 49.7 47 -1 30.3
09:50 1021 30.15 851 25.13 10.2 50.3 45 -1.3 29.7
09:55 1021 30.15 851 25.13 9.7 49.5 48 -0.7 30.7
10:00 1022 30.18 851 25.13 9.6 49.4 46 -1.3 29.7
10:05 1022 30.18 851 25.13 10.3 50.5 44 -1.4 29.5
10:10 1022 30.18 851 25.13 11 51.7 42 -1.3 29.6
10:15 1022 30.18 851 25.13 11.5 52.7 42 -0.8 30.6
10:20 1022 30.18 851 25.13 11.5 52.7 43 -0.6 30.9
10:25 1022 30.18 851 25.13 11.3 52.3 43 -0.7 30.8
10:30 1022 30.18 851 25.13 11.9 53.3 43 -0.4 31.2
10:35 1022 30.18 851 25.13 12.4 54.3 40 -0.7 30.8
10:40 1022 30.18 851 25.13 12.8 55.1 40 -0.4 31.2
10:45 1022 30.18 851 25.13 12.5 54.5 40 -0.6 31
10:50 1022 30.18 851 25.13 12.9 55.1 38 -1.1 30.1
10:55 1021 30.15 851 25.13 12.8 55 39 -0.8 30.5
11:00 1021 30.15 851 25.13 13.6 56.4 37 -0.6 30.9
11:05 1021 30.15 851 25.13 13.8 56.8 35 -1.4 29.5
11:10 1021 30.15 851 25.13 14.1 57.4 34 -1.3 29.7
11:15 1021 30.15 851 25.13 13.8 56.8 35 -1.2 29.8
11:20 1021 30.15 851 25.13 13.9 56.9 34 -1.6 29.1
11:25 1021 30.15 851 25.13 13.9 57.1 34 -1.6 29.2
11:30 1021 30.15 851 25.13 14.1 57.4 34 -1.4 29.4
11:35 1021 30.15 851 25.13 14.3 57.7 34 -1.5 29.3
11:40 1021 30.15 851 25.13 14.6 58.3 33 -1.2 29.8
11:45 1021 30.15 851 25.13 15.2 59.3 32 -1.2 29.9
11:50 1021 30.15 851 25.13 15.4 59.7 31 -1.6 29
11:55 1021 30.15 850 25.1 15.1 59.3 32 -1.5 29.2
12:00 1021 30.15 850 25.1 15.2 59.3 31 -1.8 28.8
12:05 1021 30.15 850 25.1 15.4 59.7 31 -1.4 29.5
12:10 1021 30.15 850 25.1 15.7 60.3 30 -1.5 29.3
12:15 1021 30.15 850 25.1 15.5 59.8 31 -1.4 29.5
12:20 1021 30.15 850 25.1 14.7 58.4 33 -1.2 29.8
12:25 1021 30.15 850 25.1 14.9 58.8 32 -1.6 29
12:30 1021 30.15 850 25.1 15.4 59.6 32 -1.4 29.6
12:35 1021 30.15 850 25.1 15 59 31 -1.7 29
12:40 1021 30.15 850 25.1 15.2 59.4 30 -2.1 28.3
12:45 1021 30.15 850 25.1 15.7 60.2 31 -1.5 29.4
12:50 1021 30.15 850 25.1 16.3 61.4 28 -2.1 28.2
12:55 1021 30.15 850 25.1 16 60.8 28 -2.5 27.5
13:00 1021 30.15 850 25.1 16.7 62 27 -2.2 28.1
13:05 1021 30.15 850 25.1 17 62.5 28 -1.8 28.8
13:10 1021 30.15 850 25.1 17.1 62.7 27 -2.2 28.1
13:15 1021 30.15 850 25.1 17.4 63.4 25 -2.7 27.1
13:20 1021 30.15 850 25.1 17.7 63.8 25 -2.7 27.1
13:25 1020 30.12 850 25.1 17.5 63.5 25 -2.8 27
13:30 1020 30.12 850 25.1 17.6 63.7 25 -2.4 27.7
13:35 1020 30.12 850 25.1 17.5 63.6 25 -2.7 27.1
13:40 1020 30.12 850 25.1 17.7 63.8 24 -3.2 26.2
13:45 1020 30.12 850 25.1 18.3 64.9 24 -2.7 27.1
13:50 1020 30.12 849 25.07 18.2 64.8 24 -2.8 27
13:55 1020 30.12 849 25.07 18.3 64.9 23 -3.2 26.2
14:00 1020 30.12 849 25.07 18.2 64.7 24 -2.4 27.7
14:05 1020 30.12 849 25.07 17.8 64.1 24 -2.7 27.2
14:10 1020 30.12 849 25.07 18.3 64.9 23 -3 26.5
14:15 1020 30.12 849 25.07 18.1 64.6 24 -2.6 27.3
14:20 1020 30.12 849 25.07 17.9 64.2 24 -2.6 27.3
14:25 1020 30.12 849 25.07 18.1 64.6 23 -3.1 26.4
14:30 1020 30.12 849 25.07 18.1 64.6 24 -2.7 27.2
14:35 1020 30.12 849 25.07 18 64.4 23 -3.4 25.9
14:40 1020 30.12 849 25.07 18.1 64.7 23 -3.3 26.1
14:45 1020 30.12 849 25.07 17.8 64.1 24 -3.1 26.5
14:50 1020 30.12 849 25.07 17.6 63.6 23 -3.7 25.4
14:55 1020 30.12 849 25.07 17.4 63.4 25 -2.7 27.2
15:00 1020 30.12 849 25.07 18.2 64.7 24 -2.6 27.4
15:05 1020 30.12 849 25.07 18.2 64.7 24 -2.4 27.7
15:10 1020 30.12 849 25.07 17.6 63.6 26 -2.3 27.9
15:15 1020 30.12 849 25.07 17.2 62.9 27 -1.6 29
15:20 1020 30.12 849 25.07 16.9 62.3 27 -1.9 28.6
15:25 1020 30.12 849 25.07 16.4 61.5 29 -1.6 29.1
15:30 1020 30.12 849 25.07 16.5 61.8 28 -2 28.3
15:35 1020 30.12 849 25.07 16.4 61.5 29 -1.6 29.1
15:40 1020 30.12 849 25.07 16.1 61 29 -2 28.4
15:45 1020 30.12 849 25.07 16 60.9 28 -2.4 27.6
15:50 1020 30.12 849 25.07 16.5 61.7 27 -2.3 27.9
15:55 1020 30.12 849 25.07 17.2 62.9 26 -2.5 27.6
16:00 1020 30.12 849 25.07 17.9 64.1 25 -2.3 27.8
16:05 1020 30.12 849 25.07 18.1 64.6 25 -1.9 28.6
16:10 1020 30.12 849 25.07 18.6 65.5 24 -2.4 27.7
16:15 1020 30.12 849 25.07 18.7 65.7 24 -2.3 27.8
16:20 1020 30.12 849 25.07 18.8 65.8 24 -2.3 27.9
16:25 1020 30.12 849 25.07 18.4 65.1 24 -2.3 27.8
16:30 1020 30.12 849 25.07 17.8 64.1 24 -3 26.6
16:35 1020 30.12 849 25.07 18.7 65.6 22 -3.1 26.4
16:40 1020 30.12 849 25.07 19.2 66.5 23 -2.5 27.5
16:45 1020 30.12 849 25.07 19.4 66.8 23 -2.4 27.7
16:50 1020 30.12 849 25.07 19.3 66.8 21 -3.2 26.2
16:55 1020 30.12 849 25.07 19.6 67.2 22 -2.5 27.5
17:00 1020 30.12 849 25.07 19.2 66.6 22 -2.8 27
17:05 1020 30.12 849 25.07 18.5 65.3 24 -2.1 28.3
17:10 1020 30.12 849 25.07 18.8 65.8 23 -2.7 27.2
17:15 1020 30.12 849 25.07 19.1 66.5 23 -2.3 27.9
17:20 1020 30.12 849 25.07 19.3 66.8 23 -2.2 28
17:25 1020 30.12 849 25.07 19.1 66.3 23 -2.2 28.1
17:30 1020 30.12 849 25.07 18.6 65.4 25 -1.9 28.5
17:35 1020 30.12 849 25.07 19.1 66.3 23 -2.2 28
17:40 1020 30.12 849 25.07 19.1 66.3 23 -2.2 28
17:45 1020 30.12 849 25.07 19.1 66.4 24 -1.6 29.1
17:50 1020 30.12 849 25.07 18.8 65.9 24 -1.8 28.8
17:55 1020 30.12 849 25.07 18.7 65.7 25 -1.6 29.1
18:00 1020 30.12 849 25.07 19 66.3 25 -1.4 29.5
18:05 1020 30.12 849 25.07 19.4 66.9 24 -1.3 29.6
18:10 1020 30.12 849 25.07 19.2 66.5 25 -1.4 29.4
18:15 1020 30.12 849 25.07 19 66.1 25 -1.4 29.5
18:20 1020 30.12 849 25.07 18.7 65.7 24 -2 28.3
18:25 1020 30.12 849 25.07 18.6 65.5 26 -1.1 30.1
18:30 1020 30.12 849 25.07 18.3 64.9 26 -1.4 29.5
18:35 1020 30.12 849 25.07 17.7 63.9 29 -0.4 31.3
18:40 1020 30.12 849 25.07 17.4 63.4 28 -1.3 29.6
18:45 1020 30.12 849 25.07 17.2 63 27 -1.8 28.7
18:50 1020 30.12 849 25.07 17.2 62.9 28 -1.5 29.3
18:55 1020 30.12 849 25.07 17 62.7 29 -0.8 30.5
19:00 1020 30.12 849 25.07 16.8 62.2 30 -1 30.2
19:05 1020 30.12 849 25.07 16.5 61.8 31 -0.6 30.9
19:10 1020 30.12 849 25.07 16.3 61.4 32 -0.3 31.4
19:15 1020 30.12 849 25.07 16.1 61 31 -0.8 30.5
19:20 1020 30.12 849 25.07 15.9 60.6 33 -0.3 31.4
19:25 1020 30.12 849 25.07 15.8 60.4 32 -0.8 30.5
19:30 1020 30.12 849 25.07 15.6 60.1 32 -1 30.2
19:35 1020 30.12 849 25.07 15.5 59.8 32 -1.2 29.8
19:40 1020 30.12 849 25.07 15.3 59.5 32 -1.4 29.5
19:45 1020 30.12 849 25.07 15 59 31 -1.7 29
19:50 1020 30.12 849 25.07 14.8 58.7 31 -1.9 28.5
19:55 1020 30.12 849 25.07 14.9 58.7 31 -2 28.4
20:00 1020 30.12 850 25.1 14.9 58.9 31 -1.8 28.8
20:05 1020 30.12 850 25.1 14.7 58.4 32 -1.7 28.9
20:10 1020 30.12 850 25.1 14.6 58.3 32 -1.9 28.6
20:15 1020 30.12 850 25.1 14.5 58.1 32 -2 28.4
20:20 1020 30.12 850 25.1 14.8 58.6 31 -2.1 28.2
20:25 1021 30.15 850 25.1 15 58.9 31 -2 28.4
20:30 1021 30.15 850 25.1 14.8 58.6 32 -1.6 29
20:35 1021 30.15 850 25.1 14.3 57.7 33 -1.7 28.9
20:40 1021 30.15 850 25.1 13.9 57 34 -1.6 29
20:45 1021 30.15 850 25.1 13.6 56.6 35 -1.5 29.2
20:50 1021 30.15 850 25.1 13.5 56.4 35 -1.6 29.2
20:55 1021 30.15 850 25.1 13.5 56.2 36 -1.4 29.5
21:00 1021 30.15 850 25.1 13.3 56 38 -0.6 30.8
21:05 1021 30.15 850 25.1 13.1 55.6 37 -1.2 29.8
21:10 1021 30.15 850 25.1 13.3 55.9 35 -1.7 28.9
21:15 1021 30.15 851 25.13 13.4 56.2 35 -1.7 28.9
21:20 1021 30.15 851 25.13 13.5 56.3 34 -2 28.4
21:25 1021 30.15 851 25.13 14 57.3 33 -1.8 28.8
21:30 1021 30.15 851 25.13 14.3 57.7 33 -1.6 29.1
21:35 1021 30.15 851 25.13 14.3 57.7 34 -1.3 29.6
21:40 1022 30.18 851 25.13 14.1 57.3 34 -1.5 29.4
21:45 1022 30.18 851 25.13 14 57.2 34 -1.5 29.2
21:50 1022 30.18 851 25.13 13.8 56.8 34 -1.6 29.2
21:55 1022 30.18 851 25.13 13.5 56.4 35 -1.5 29.3
22:00 1022 30.18 851 25.13 13.1 55.6 37 -1.3 29.7
22:05 1022 30.18 851 25.13 12.6 54.7 40 -0.5 31.1
22:10 1022 30.18 851 25.13 12.1 53.9 39 -1.3 29.6
22:15 1022 30.18 851 25.13 12.7 54.8 36 -1.9 28.6
22:20 1022 30.18 851 25.13 13.3 56 35 -1.8 28.8
22:25 1022 30.18 851 25.13 13.7 56.6 34 -1.7 29
22:30 1022 30.18 851 25.13 13.6 56.4 35 -1.4 29.4
22:35 1022 30.18 851 25.13 13.1 55.7 37 -1.2 29.8
22:40 1022 30.18 851 25.13 12.7 54.9 39 -0.9 30.4
22:45 1022 30.18 851 25.13 12.2 54 41 -0.5 31.1
22:50 1022 30.18 852 25.16 11.6 52.9 46 0.3 32.6
22:55 1023 30.21 852 25.16 10.9 51.6 46 -0.4 31.3
23:00 1023 30.21 852 25.16 10.7 51.3 47 -0.1 31.9
23:05 1023 30.21 852 25.16 10.4 50.8 47 -0.2 31.6
23:10 1023 30.21 852 25.16 10.6 51.1 44 -1.1 30
23:15 1023 30.21 852 25.16 11.3 52.4 40 -1.7 28.9
23:20 1023 30.21 852 25.16 12 53.6 39 -1.5 29.3
23:25 1023 30.21 852 25.16 12.1 53.7 41 -0.8 30.5
23:30 1023 30.21 852 25.16 11.9 53.5 41 -1 30.2
23:35 1023 30.21 852 25.16 11.5 52.6 42 -0.8 30.5
23:40 1023 30.21 852 25.16 11.3 52.4 43 -0.9 30.4
23:45 1023 30.21 852 25.16 11.4 52.6 42 -0.8 30.5
23:50 1023 30.21 852 25.16 11.6 52.8 42 -0.9 30.3
23:55 1023 30.21 852 25.16 11.5 52.6 42 -1 30.1
24:00 1023 30.21 852 25.16 11.3 52.4 43 -0.9 30.4